Time;durP1;ratioP1;P1;durP2;ratioP2;P2;SDS_P1;SDS_P2;PMS_P1;PMS_P2;Temp;Humidity;BMP_temperature;BMP_pressure;BME280_temperature;BME280_humidity;BME280_pressure;Samples;Min_cycle;Max_cycle;Signal;HPM_P1;HPM_P2
2023/09/14 00:01:56;;;;;;;4.27;3.87;;;;;;;18.77;100.00;99326.81;4984039;28;20201;-89
2023/09/14 00:04:24;;;;;;;4.03;3.73;;;;;;;18.73;100.00;99332.00;4979149;28;20261;-89
2023/09/14 00:07:04;;;;;;;3.83;3.60;;;;;;;18.70;100.00;99329.84;4986488;28;20726;-86
2023/09/14 00:09:32;;;;;;;3.37;3.13;;;;;;;18.73;100.00;99328.47;4959651;28;20224;-89
2023/09/14 00:11:59;;;;;;;4.07;3.30;;;;;;;18.73;100.00;99328.47;4947345;28;20300;-88
2023/09/14 00:14:29;;;;;;;3.90;3.60;;;;;;;18.71;100.00;99328.72;4992790;28;20228;-88
2023/09/14 00:16:58;;;;;;;3.67;3.47;;;;;;;18.77;100.00;99330.34;4983579;28;20210;-88
2023/09/14 00:19:37;;;;;;;3.80;3.50;;;;;;;18.81;100.00;99323.25;4985761;28;20199;-87
2023/09/14 00:22:08;;;;;;;3.37;3.17;;;;;;;18.77;100.00;99326.81;4998516;28;20202;-88
2023/09/14 00:24:40;;;;;;;3.53;3.33;;;;;;;18.76;100.00;99331.44;4987334;28;20289;-88
2023/09/14 00:27:09;;;;;;;3.40;3.20;;;;;;;18.73;100.00;99332.00;4978767;28;20250;-88
2023/09/14 00:29:38;;;;;;;3.37;3.17;;;;;;;18.72;100.00;99332.25;4959558;28;20304;-90
2023/09/14 00:32:06;;;;;;;3.80;3.50;;;;;;;18.73;100.00;99336.59;4974311;28;20214;-88
2023/09/14 00:34:36;;;;;;;3.60;3.30;;;;;;;18.71;100.00;99334.16;4966564;28;20213;-88
2023/09/14 00:37:04;;;;;;;3.43;3.13;;;;;;;18.71;100.00;99325.25;4967024;28;20209;-88
2023/09/14 00:39:32;;;;;;;3.53;3.30;;;;;;;18.71;100.00;99326.03;4983662;28;20205;-88
2023/09/14 00:42:02;;;;;;;3.77;3.47;;;;;;;18.68;100.00;99321.16;4992593;28;20214;-88
2023/09/14 00:44:33;;;;;;;3.80;3.60;;;;;;;18.69;100.00;99319.25;5006479;28;20242;-90
2023/09/14 00:47:03;;;;;;;3.80;3.43;;;;;;;18.71;100.00;99327.94;4995587;28;20237;-88
2023/09/14 00:49:33;;;;;;;3.77;3.47;;;;;;;18.66;100.00;99326.06;4988197;28;20302;-88
2023/09/14 00:52:06;;;;;;;4.00;3.70;;;;;;;18.68;100.00;99329.31;4984253;28;20199;-88
2023/09/14 00:54:35;;;;;;;4.00;3.70;;;;;;;18.70;100.00;99321.72;4995015;28;20204;-88
2023/09/14 00:57:03;;;;;;;3.57;3.27;;;;;;;18.70;100.00;99320.91;4997968;28;20229;-88
2023/09/14 00:59:34;;;;;;;3.80;3.50;;;;;;;18.66;100.00;99323.38;4984039;28;20221;-88
2023/09/14 01:02:05;;;;;;;4.00;3.70;;;;;;;18.70;100.00;99316.28;4969181;28;20198;-89
2023/09/14 01:04:34;;;;;;;3.80;3.50;;;;;;;18.68;100.00;99321.16;5000163;28;20207;-88
2023/09/14 01:07:02;;;;;;;4.03;3.70;;;;;;;18.76;100.00;99333.31;4979937;28;20215;-90
2023/09/14 01:09:31;;;;;;;4.00;3.70;;;;;;;18.82;100.00;99329.50;4977863;28;20702;-91
2023/09/14 01:12:04;;;;;;;3.63;3.33;;;;;;;18.81;100.00;99338.72;5005276;28;20304;-88
2023/09/14 01:14:45;;;;;;;3.47;3.27;;;;;;;18.80;100.00;99329.78;4992070;28;20196;-88
2023/09/14 01:17:25;;;;;;;3.50;3.20;;;;;;;18.88;100.00;99334.63;4977727;28;20297;-88
2023/09/14 01:20:12;;;;;;;3.93;3.57;;;;;;;18.85;100.00;99328.94;4984035;28;20229;-88
2023/09/14 01:23:06;;;;;;;3.87;3.60;;;;;;;18.82;100.00;99334.94;5002117;28;20277;-88
2023/09/14 01:25:41;;;;;;;3.87;3.57;;;;;;;18.77;100.00;99345.81;4999368;28;20195;-89
2023/09/14 01:28:14;;;;;;;3.50;3.20;;;;;;;18.74;100.00;99341.75;4966579;28;20226;-90
2023/09/14 01:30:42;;;;;;;3.60;3.37;;;;;;;18.72;100.00;99340.41;4996252;28;20204;-90
2023/09/14 01:33:15;;;;;;;3.83;3.60;;;;;;;18.72;100.00;99351.25;4967871;28;20257;-90
2023/09/14 01:36:02;;;;;;;3.40;3.20;;;;;;;18.71;100.00;99344.22;4964987;28;20215;-90
2023/09/14 01:38:34;;;;;;;3.77;3.30;;;;;;;18.67;100.00;99345.84;4968016;28;20204;-90
2023/09/14 01:41:09;;;;;;;4.07;3.47;;;;;;;18.66;100.00;99341.53;4969432;28;20207;-89
2023/09/14 01:43:46;;;;;;;3.87;3.50;;;;;;;18.71;100.00;99345.03;4990693;28;20241;-90
2023/09/14 01:46:17;;;;;;;3.90;3.50;;;;;;;18.68;100.00;99355.63;4963297;28;20315;-90
2023/09/14 01:48:49;;;;;;;3.70;3.40;;;;;;;18.69;100.00;99341.78;4974616;28;20282;-90
2023/09/14 01:51:21;;;;;;;3.90;3.60;;;;;;;18.68;100.00;99348.31;4995948;28;20209;-89
2023/09/14 01:53:50;;;;;;;3.83;3.60;;;;;;;18.67;100.00;99348.56;4985405;28;20197;-90
2023/09/14 01:56:18;;;;;;;3.53;3.33;;;;;;;18.65;100.00;99348.88;4977797;28;20210;-89
2023/09/14 01:58:46;;;;;;;4.20;3.80;;;;;;;18.63;100.00;99348.31;4963882;28;20214;-89
2023/09/14 02:01:17;;;;;;;3.80;3.30;;;;;;;18.67;100.00;99351.28;4970092;28;20737;-88
2023/09/14 02:03:46;;;;;;;4.03;3.73;;;;;;;18.63;100.00;99358.34;4962504;28;20211;-90
2023/09/14 02:06:15;;;;;;;4.23;3.47;;;;;;;18.62;100.00;99362.16;4997815;28;20200;-90
2023/09/14 02:08:44;;;;;;;4.23;3.87;;;;;;;18.63;100.00;99356.47;4972571;28;20207;-88
2023/09/14 02:11:13;;;;;;;3.97;3.67;;;;;;;18.68;100.00;99370.00;4967139;28;20205;-88
2023/09/14 02:13:43;;;;;;;4.37;4.07;;;;;;;18.71;100.00;99365.94;4971040;28;20236;-89
2023/09/14 02:16:11;;;;;;;4.30;3.90;;;;;;;18.65;100.00;99361.63;4966503;28;20218;-88
2023/09/14 02:18:44;;;;;;;4.23;3.93;;;;;;;18.63;100.00;99371.94;4981581;28;20192;-88
2023/09/14 02:21:16;;;;;;;4.17;3.87;;;;;;;18.62;100.00;99365.69;4987844;28;20203;-88
2023/09/14 02:23:47;;;;;;;4.10;3.80;;;;;;;18.63;100.00;99369.22;4973034;28;20765;-88
2023/09/14 02:26:17;;;;;;;4.10;3.70;;;;;;;18.67;100.00;99370.28;4980941;28;20204;-88
2023/09/14 02:28:47;;;;;;;4.40;4.00;;;;;;;18.69;100.00;99368.09;4962163;28;20202;-88
2023/09/14 02:31:15;;;;;;;3.90;3.60;;;;;;;18.65;100.00;99381.44;4984053;28;20209;-89
2023/09/14 02:33:47;;;;;;;3.83;3.50;;;;;;;18.66;100.00;99384.97;4960640;28;20266;-87
2023/09/14 02:36:18;;;;;;;3.93;3.63;;;;;;;18.58;100.00;99374.66;4983547;28;20211;-88
2023/09/14 02:38:46;;;;;;;3.60;3.40;;;;;;;18.62;100.00;99379.25;4977853;28;20310;-88
2023/09/14 02:41:15;;;;;;;4.10;3.80;;;;;;;18.59;100.00;99381.72;4995886;28;20710;-89
2023/09/14 02:43:44;;;;;;;3.97;3.63;;;;;;;18.56;100.00;99390.41;4963237;28;20240;-88
2023/09/14 02:46:15;;;;;;;3.87;3.57;;;;;;;18.61;100.00;99384.97;4994825;28;20226;-90
2023/09/14 02:48:46;;;;;;;3.90;3.60;;;;;;;18.59;100.00;99384.44;4982920;28;20245;-90
2023/09/14 02:51:15;;;;;;;4.00;3.70;;;;;;;18.57;100.00;99392.84;4999463;28;20652;-90
2023/09/14 02:53:49;;;;;;;3.80;3.50;;;;;;;18.54;100.00;99390.69;4999397;28;20220;-90
2023/09/14 02:56:18;;;;;;;3.90;3.70;;;;;;;18.57;100.00;99384.69;4999645;28;20238;-90
2023/09/14 02:58:52;;;;;;;3.93;3.63;;;;;;;18.70;100.00;99383.31;5003539;28;20246;-89
2023/09/14 03:01:24;;;;;;;4.20;3.90;;;;;;;18.74;100.00;99379.75;5002753;28;20212;-90
2023/09/14 03:03:56;;;;;;;3.80;3.57;;;;;;;18.62;100.00;99379.25;4985150;28;20204;-90
2023/09/14 03:06:26;;;;;;;4.20;3.80;;;;;;;18.69;100.00;99382.50;4967266;28;20204;-90
2023/09/14 03:08:54;;;;;;;4.30;3.70;;;;;;;18.63;100.00;99383.59;5002146;28;20211;-90
2023/09/14 03:11:22;;;;;;;3.77;3.50;;;;;;;18.57;100.00;99392.84;4975029;28;20694;-90
2023/09/14 03:13:51;;;;;;;4.13;3.83;;;;;;;18.56;100.00;99383.09;4996410;28;20239;-87
2023/09/14 03:16:19;;;;;;;4.33;3.97;;;;;;;18.59;100.00;99387.13;4981218;28;20256;-88
2023/09/14 03:18:50;;;;;;;4.10;3.80;;;;;;;18.55;100.00;99383.38;4977300;28;20235;-88
2023/09/14 03:21:26;;;;;;;4.10;3.80;;;;;;;18.53;100.00;99389.06;4981131;28;20246;-88
2023/09/14 03:23:59;;;;;;;4.17;3.83;;;;;;;18.52;100.00;99387.44;4995166;28;20212;-88
2023/09/14 03:26:36;;;;;;;4.60;4.30;;;;;;;18.47;100.00;99387.44;5006880;28;20244;-87
2023/09/14 03:29:06;;;;;;;4.07;3.77;;;;;;;18.39;100.00;99382.56;4983706;28;20207;-87
2023/09/14 03:31:40;;;;;;;4.33;4.03;;;;;;;18.31;100.00;99389.38;4998435;28;20292;-88
2023/09/14 03:34:09;;;;;;;4.10;3.80;;;;;;;18.27;100.00;99395.63;5011487;28;20236;-87
2023/09/14 03:36:42;;;;;;;4.00;3.70;;;;;;;18.26;100.00;99391.28;4974734;28;20199;-88
2023/09/14 03:39:12;;;;;;;3.90;3.60;;;;;;;18.23;100.00;99398.09;4984954;28;20729;-88
2023/09/14 03:41:42;;;;;;;4.60;4.13;;;;;;;18.19;100.00;99399.72;4978231;28;20205;-88
2023/09/14 03:44:13;;;;;;;3.93;3.73;;;;;;;18.18;100.00;99398.09;4971905;28;20261;-88
2023/09/14 03:46:41;;;;;;;4.53;4.13;;;;;;;18.16;100.00;99397.53;4965549;28;20231;-87
2023/09/14 03:49:09;;;;;;;4.00;3.70;;;;;;;18.14;100.00;99402.44;4957176;28;20203;-89
2023/09/14 03:51:37;;;;;;;4.57;4.20;;;;;;;18.10;100.00;99405.97;4951182;28;20207;-88
2023/09/14 03:54:09;;;;;;;4.07;3.77;;;;;;;18.07;100.00;99410.03;4972475;28;20215;-86
2023/09/14 03:56:38;;;;;;;4.33;3.93;;;;;;;18.03;100.00;99408.97;4972353;28;21247;-87
2023/09/14 03:59:08;;;;;;;4.10;3.80;;;;;;;18.05;100.00;99412.22;4975611;28;20223;-87
2023/09/14 04:01:35;;;;;;;4.30;4.00;;;;;;;18.05;100.00;99409.50;4961683;28;20201;-87
2023/09/14 04:04:06;;;;;;;4.13;3.83;;;;;;;18.01;100.00;99417.34;4976765;28;20311;-87
2023/09/14 04:06:34;;;;;;;4.40;3.80;;;;;;;18.01;100.00;99419.25;4969517;28;20226;-88
2023/09/14 04:09:04;;;;;;;3.73;3.53;;;;;;;18.03;100.00;99404.34;4959413;28;20228;-88
2023/09/14 04:11:31;;;;;;;3.80;3.50;;;;;;;18.06;100.00;99413.03;4945729;28;20215;-88
2023/09/14 04:14:02;;;;;;;3.47;3.17;;;;;;;18.06;100.00;99405.69;4958366;28;20305;-88
2023/09/14 04:16:34;;;;;;;3.70;3.40;;;;;;;18.03;100.00;99403.53;4961552;28;20739;-88
2023/09/14 04:19:04;;;;;;;3.87;3.57;;;;;;;18.07;100.00;99414.63;4962509;28;20660;-89
2023/09/14 04:21:36;;;;;;;4.10;3.70;;;;;;;18.03;100.00;99407.06;4981309;28;20288;-88
2023/09/14 04:24:07;;;;;;;3.83;3.53;;;;;;;18.06;100.00;99413.81;4964274;28;20283;-88
2023/09/14 04:26:38;;;;;;;5.27;3.50;;;;;;;18.11;100.00;99413.81;4969711;28;20216;-88
2023/09/14 04:29:14;;;;;;;3.67;3.43;;;;;;;18.09;100.00;99409.78;4947654;28;20234;-88
2023/09/14 04:31:43;;;;;;;4.00;3.60;;;;;;;18.06;100.00;99407.63;4979860;28;20227;-89
2023/09/14 04:34:11;;;;;;;3.70;3.40;;;;;;;18.07;100.00;99409.22;4950203;28;20205;-88
2023/09/14 04:36:39;;;;;;;3.90;3.60;;;;;;;18.19;100.00;99407.06;4967515;28;20203;-88
2023/09/14 04:39:07;;;;;;;3.87;3.53;;;;;;;18.15;100.00;99406.75;4960141;28;20214;-88
2023/09/14 04:41:35;;;;;;;3.60;3.40;;;;;;;18.15;100.00;99417.59;4962499;28;20679;-88
2023/09/14 04:44:12;;;;;;;4.23;3.83;;;;;;;18.20;100.00;99417.59;4980838;28;20732;-88
2023/09/14 04:46:43;;;;;;;4.13;3.73;;;;;;;18.18;100.00;99413.56;4985626;28;20234;-88
2023/09/14 04:49:15;;;;;;;3.80;3.60;;;;;;;18.22;100.00;99414.63;4974265;28;20301;-87
2023/09/14 04:51:47;;;;;;;4.90;4.03;;;;;;;18.23;100.00;99408.94;4968682;28;20204;-88
2023/09/14 04:54:18;;;;;;;4.57;4.17;;;;;;;18.31;100.00;99412.97;4988566;28;20307;-87
2023/09/14 04:56:50;;;;;;;4.40;4.00;;;;;;;18.31;100.00;99421.94;4968362;28;20221;-88
2023/09/14 04:59:18;;;;;;;4.47;4.10;;;;;;;18.32;100.00;99418.13;4964125;28;20291;-88
2023/09/14 05:01:48;;;;;;;4.67;4.27;;;;;;;18.31;100.00;99424.63;4989872;28;20209;-86
2023/09/14 05:04:15;;;;;;;4.53;4.13;;;;;;;18.40;100.00;99428.41;4982627;28;20218;-88
2023/09/14 05:06:52;;;;;;;4.70;4.30;;;;;;;18.38;100.00;99429.78;4981794;28;20190;-87
2023/09/14 05:09:21;;;;;;;5.00;4.60;;;;;;;18.38;100.00;99427.06;4983256;28;20233;-87
2023/09/14 05:11:50;;;;;;;4.80;4.33;;;;;;;18.50;100.00;99435.72;4996473;28;20676;-88
2023/09/14 05:14:19;;;;;;;4.63;4.23;;;;;;;18.45;100.00;99435.72;5010281;28;20228;-88
2023/09/14 05:16:51;;;;;;;5.10;4.67;;;;;;;18.49;100.00;99432.19;4976678;28;20210;-86
2023/09/14 05:19:29;;;;;;;5.23;4.83;;;;;;;18.55;100.00;99438.44;4981528;28;20215;-88
2023/09/14 05:22:11;;;;;;;5.13;4.73;;;;;;;18.55;100.00;99443.88;4975652;28;20736;-88
2023/09/14 05:24:41;;;;;;;5.57;5.00;;;;;;;18.63;100.00;99446.00;4997088;28;20206;-87
2023/09/14 05:27:11;;;;;;;5.70;5.30;;;;;;;18.75;100.00;99449.22;4989784;28;20210;-87
2023/09/14 05:29:44;;;;;;;5.37;4.97;;;;;;;18.84;100.00;99455.72;4973482;28;20204;-88
2023/09/14 05:32:19;;;;;;;6.03;5.47;;;;;;;18.86;100.00;99450.81;4968994;28;20727;-87
2023/09/14 05:34:47;;;;;;;5.20;4.80;;;;;;;18.92;100.00;99454.31;4977829;28;20232;-87
2023/09/14 05:37:19;;;;;;;5.33;4.93;;;;;;;19.00;100.00;99458.34;4974012;28;20215;-87
2023/09/14 05:39:50;;;;;;;5.47;5.07;;;;;;;19.06;100.00;99457.22;4977721;28;20211;-87
2023/09/14 05:42:19;;;;;;;5.40;4.90;;;;;;;19.11;100.00;99462.63;4983938;28;20242;-87
2023/09/14 05:44:48;;;;;;;5.50;5.00;;;;;;;19.24;100.00;99472.88;4969496;28;20237;-87
2023/09/14 05:47:20;;;;;;;5.20;4.80;;;;;;;19.43;100.00;99460.28;4984006;28;20222;-87
2023/09/14 05:49:49;;;;;;;5.37;4.97;;;;;;;19.41;100.00;99472.53;4977417;28;20207;-88
2023/09/14 05:52:23;;;;;;;5.47;5.07;;;;;;;19.51;100.00;99467.84;4991238;28;20286;-87
2023/09/14 05:54:54;;;;;;;5.00;4.50;;;;;;;19.65;100.00;99468.84;4960013;28;20206;-87
2023/09/14 05:57:31;;;;;;;4.90;4.43;;;;;;;19.83;100.00;99467.34;4980079;28;20215;-88
2023/09/14 05:59:59;;;;;;;4.97;4.53;;;;;;;19.99;100.00;99477.03;4980192;28;20206;-89
2023/09/14 06:02:27;;;;;;;4.80;4.50;;;;;;;20.11;100.00;99482.09;4972618;28;20217;-87
2023/09/14 06:04:55;;;;;;;4.87;4.47;;;;;;;20.12;100.00;99489.16;4985423;28;20203;-87
2023/09/14 06:07:42;;;;;;;5.40;4.90;;;;;;;20.22;100.00;99484.44;4988099;28;20234;-86
2023/09/14 06:10:14;;;;;;;5.43;4.93;;;;;;;20.34;100.00;99494.16;4966015;28;20205;-87
2023/09/14 06:12:42;;;;;;;5.33;4.83;;;;;;;20.37;100.00;99499.84;5000120;28;20209;-87
2023/09/14 06:15:09;;;;;;;5.37;4.97;;;;;;;20.50;100.00;99484.75;4979352;28;20263;-88
2023/09/14 06:17:41;;;;;;;5.63;5.13;;;;;;;20.64;100.00;99497.38;4996896;28;20624;-87
2023/09/14 06:20:15;;;;;;;5.20;4.80;;;;;;;20.67;100.00;99504.13;4976191;28;20234;-87
2023/09/14 06:22:42;;;;;;;6.00;5.40;;;;;;;20.58;100.00;99503.97;4963807;28;20221;-89
2023/09/14 06:25:10;;;;;;;6.27;5.77;;;;;;;20.45;100.00;99514.72;4979712;28;20295;-88
2023/09/14 06:27:38;;;;;;;5.85;5.25;;;;;;;20.54;100.00;99511.09;4957109;28;20237;-88
2023/09/14 06:30:06;;;;;;;5.70;5.30;;;;;;;20.53;100.00;99514.13;4965066;28;20261;-88
2023/09/14 06:32:40;;;;;;;5.93;5.38;;;;;;;20.54;100.00;99521.16;4994025;28;20219;-88
2023/09/14 06:35:09;;;;;;;6.20;5.70;;;;;;;20.57;100.00;99515.16;4971928;28;20300;-87
2023/09/14 06:37:39;;;;;;;5.90;5.45;;;;;;;20.57;100.00;99521.41;4980389;28;20202;-87
2023/09/14 06:40:10;;;;;;;6.10;5.57;;;;;;;20.49;100.00;99518.47;4975447;28;20707;-87
2023/09/14 06:42:42;;;;;;;5.83;5.33;;;;;;;20.57;100.00;99526.06;4968519;28;20671;-87
2023/09/14 06:45:10;;;;;;;5.93;5.43;;;;;;;20.63;100.00;99522.16;4993243;28;20242;-87
2023/09/14 06:47:38;;;;;;;5.82;5.43;;;;;;;20.52;100.00;99528.81;4966783;28;20329;-87
2023/09/14 06:50:09;;;;;;;5.87;5.40;;;;;;;20.41;100.00;99519.94;4968106;28;20341;-87
2023/09/14 06:52:37;;;;;;;6.00;5.57;;;;;;;20.23;100.00;99529.59;4999933;28;20217;-87
2023/09/14 06:55:06;;;;;;;6.23;5.73;;;;;;;20.15;100.00;99532.94;4990271;28;20198;-87
2023/09/14 06:57:35;;;;;;;6.10;5.60;;;;;;;19.96;100.00;99542.03;4986547;28;20206;-88
2023/09/14 07:00:14;;;;;;;6.20;5.60;;;;;;;19.95;100.00;99548.56;4988663;28;20205;-88
2023/09/14 07:02:44;;;;;;;6.27;5.80;;;;;;;20.02;100.00;99544.44;4969729;28;20205;-89
2023/09/14 07:05:15;;;;;;;5.83;5.43;;;;;;;20.10;100.00;99552.00;4972351;28;20256;-87
2023/09/14 07:07:43;;;;;;;6.27;5.87;;;;;;;20.22;100.00;99549.72;4967701;28;20595;-86
2023/09/14 07:10:11;;;;;;;6.83;6.33;;;;;;;20.42;100.00;99547.97;4984716;28;20208;-87
2023/09/14 07:12:38;;;;;;;6.37;5.93;;;;;;;20.59;100.00;99551.88;4984000;28;20257;-87
2023/09/14 07:15:11;;;;;;;6.27;5.67;;;;;;;20.58;100.00;99549.41;4980018;28;20213;-86
2023/09/14 07:17:41;;;;;;;6.50;5.90;;;;;;;20.54;100.00;99551.91;4983495;28;20198;-87
2023/09/14 07:20:09;;;;;;;6.57;6.07;;;;;;;20.58;100.00;99568.47;5002272;28;20199;-87
2023/09/14 07:22:37;;;;;;;6.53;6.03;;;;;;;20.58;100.00;99568.47;4988149;28;20206;-87
2023/09/14 07:25:08;;;;;;;6.03;5.53;;;;;;;20.75;100.00;99570.78;4967791;28;20213;-87
2023/09/14 07:27:38;;;;;;;6.13;5.63;;;;;;;20.92;100.00;99574.69;4971233;28;20291;-87
2023/09/14 07:30:10;;;;;;;6.30;5.80;;;;;;;21.06;100.00;99572.88;4970106;28;20206;-86
2023/09/14 07:32:40;;;;;;;7.03;5.83;;;;;;;21.44;100.00;99573.00;4979921;28;20736;-87
2023/09/14 07:35:17;;;;;;;6.82;6.18;;;;;;;21.53;100.00;99579.44;4971365;28;20210;-87
2023/09/14 07:37:46;;;;;;;6.13;5.50;;;;;;;21.47;100.00;99577.88;4982032;28;20735;-86
2023/09/14 07:40:18;;;;;;;6.05;5.55;;;;;;;21.92;100.00;99590.91;4984274;28;20266;-86
2023/09/14 07:42:45;;;;;;;5.93;5.43;;;;;;;22.17;100.00;99592.44;4965193;28;20208;-86
2023/09/14 07:45:13;;;;;;;6.05;5.43;;;;;;;22.34;100.00;99591.94;4982008;28;20723;-86
2023/09/14 07:47:41;;;;;;;5.68;5.28;;;;;;;22.17;100.00;99592.44;4982319;28;20299;-87
2023/09/14 07:50:09;;;;;;;5.97;5.47;;;;;;;22.14;100.00;99594.97;4974566;28;20330;-86
2023/09/14 07:52:36;;;;;;;5.88;5.45;;;;;;;22.34;100.00;99600.94;4988051;28;20226;-87
2023/09/14 07:55:13;;;;;;;6.45;5.95;;;;;;;22.28;100.00;99593.94;4996653;28;20679;-86
2023/09/14 07:57:49;;;;;;;6.22;5.72;;;;;;;22.00;100.00;99594.09;4978456;28;20199;-87
2023/09/14 08:00:21;;;;;;;6.03;5.63;;;;;;;22.03;100.00;99602.47;4965625;28;20260;-87
2023/09/14 08:02:49;;;;;;;6.07;5.57;;;;;;;22.09;100.00;99603.22;4995148;28;20214;-86
2023/09/14 08:05:16;;;;;;;5.97;5.47;;;;;;;21.90;100.00;99608.66;4965481;28;20210;-88
2023/09/14 08:07:46;;;;;;;6.10;5.70;;;;;;;21.81;100.00;99608.50;4977692;28;20203;-87
2023/09/14 08:10:18;;;;;;;6.00;5.38;;;;;;;21.90;100.00;99612.19;4980594;28;20211;-88
2023/09/14 08:12:50;;;;;;;6.28;5.78;;;;;;;21.78;100.00;99617.28;4978946;28;20218;-87
2023/09/14 08:15:17;;;;;;;5.88;5.47;;;;;;;21.71;100.00;99613.28;4967599;28;20203;-86
2023/09/14 08:17:51;;;;;;;6.72;6.22;;;;;;;21.76;100.00;99616.75;4997400;28;20191;-86
2023/09/14 08:20:18;;;;;;;6.35;5.85;;;;;;;21.88;100.00;99616.34;4962482;28;20234;-86
2023/09/14 08:22:48;;;;;;;6.20;5.80;;;;;;;21.86;100.00;99616.63;4984639;28;20203;-86
2023/09/14 08:25:16;;;;;;;6.20;5.72;;;;;;;22.01;100.00;99628.44;4982369;28;20204;-86
2023/09/14 08:27:48;;;;;;;6.28;5.88;;;;;;;22.08;100.00;99620.69;4983034;28;20209;-86
2023/09/14 08:30:19;;;;;;;7.10;5.93;;;;;;;22.14;100.00;99628.53;4981536;28;20219;-87
2023/09/14 08:32:48;;;;;;;6.53;6.03;;;;;;;22.19;100.00;99635.81;4981304;28;20207;-88
2023/09/14 08:35:25;;;;;;;6.45;5.85;;;;;;;22.12;100.00;99630.72;5000608;28;20213;-88
2023/09/14 08:37:57;;;;;;;6.57;6.18;;;;;;;22.22;100.00;99636.03;4983126;28;20208;-88
2023/09/14 08:40:29;;;;;;;6.60;6.00;;;;;;;22.39;100.00;99644.53;4979124;28;20199;-87
2023/09/14 08:42:58;;;;;;;6.47;5.97;;;;;;;22.50;100.00;99633.41;4979054;28;20206;-89
2023/09/14 08:45:31;;;;;;;6.97;6.38;;;;;;;22.52;100.00;99634.75;4953815;28;20295;-87
2023/09/14 08:48:02;;;;;;;6.70;6.20;;;;;;;22.60;100.00;99636.81;4974813;28;20228;-86
2023/09/14 08:50:33;;;;;;;6.95;6.45;;;;;;;22.87;100.00;99632.53;4960615;28;20264;-87
2023/09/14 08:53:04;;;;;;;6.35;5.85;;;;;;;23.29;100.00;99632.31;4944822;28;20637;-86
2023/09/14 08:55:34;;;;;;;6.18;5.68;;;;;;;23.63;100.00;99621.81;4976565;28;20218;-86
2023/09/14 08:58:04;;;;;;;6.15;5.65;;;;;;;23.80;100.00;99631.28;4963816;28;20200;-87
2023/09/14 09:00:34;;;;;;;6.00;5.60;;;;;;;23.81;100.00;99632.91;4979695;28;20203;-86
2023/09/14 09:03:04;;;;;;;5.93;5.53;;;;;;;23.54;100.00;99623.63;4994246;28;20341;-88
2023/09/14 09:05:32;;;;;;;6.35;5.93;;;;;;;23.72;100.00;99635.56;4960678;28;20205;-87
2023/09/14 09:07:59;;;;;;;6.05;5.55;;;;;;;23.72;100.00;99629.28;4970031;28;20192;-87
2023/09/14 09:10:31;;;;;;;5.43;5.03;;;;;;;23.95;100.00;99620.84;4961096;28;20243;-88
2023/09/14 09:13:00;;;;;;;6.07;5.57;;;;;;;24.01;100.00;99630.56;4960758;28;20673;-86
2023/09/14 09:15:32;;;;;;;5.80;5.30;;;;;;;24.36;100.00;99618.00;4970257;28;20202;-87
2023/09/14 09:18:06;;;;;;;5.75;5.35;;;;;;;24.31;100.00;99629.06;4967123;28;20195;-86
2023/09/14 09:20:39;;;;;;;5.75;5.25;;;;;;;24.21;100.00;99625.78;4960040;28;20203;-87
2023/09/14 09:23:11;;;;;;;5.60;5.10;;;;;;;24.46;100.00;99636.09;4941742;28;20212;-87
2023/09/14 09:25:51;;;;;;;6.03;5.53;;;;;;;24.04;100.00;99634.59;4973488;28;20192;-87
2023/09/14 09:28:19;;;;;;;6.03;5.45;;;;;;;24.17;100.00;99639.25;4976711;28;20207;-86
2023/09/14 09:30:52;;;;;;;5.60;5.20;;;;;;;24.31;100.00;99623.59;4983974;28;20257;-86
2023/09/14 09:33:41;;;;;;;6.10;5.70;;;;;;;24.04;100.00;99637.31;4961152;28;20203;-88
2023/09/14 09:36:21;;;;;;;6.53;6.03;;;;;;;24.24;100.00;99633.34;4954281;28;20208;-85
2023/09/14 09:38:51;;;;;;;5.80;5.30;;;;;;;24.12;100.00;99637.41;4957550;28;20208;-86
2023/09/14 09:41:18;;;;;;;5.88;5.47;;;;;;;24.26;100.00;99629.22;4971817;28;20210;-86
2023/09/14 09:43:49;;;;;;;5.80;5.32;;;;;;;24.16;100.00;99640.38;4957026;28;20241;-88
2023/09/14 09:46:18;;;;;;;5.68;5.20;;;;;;;24.13;100.00;99636.28;4959675;28;20243;-87
2023/09/14 09:48:52;;;;;;;5.10;4.80;;;;;;;24.08;100.00;99627.38;4960724;28;20314;-86
2023/09/14 09:51:24;;;;;;;5.85;5.35;;;;;;;24.28;100.00;99626.94;4960391;28;20238;-86
2023/09/14 09:54:03;;;;;;;5.32;5.00;;;;;;;24.30;100.00;99630.19;4973717;28;20203;-86
2023/09/14 09:56:34;;;;;;;4.90;4.60;;;;;;;24.34;100.00;99639.41;4970664;28;20375;-86
2023/09/14 09:59:04;;;;;;;5.43;5.03;;;;;;;24.03;100.00;99642.00;4956373;28;20200;-87
2023/09/14 10:01:32;;;;;;;5.30;4.80;;;;;;;24.76;100.00;99638.09;4949410;28;20204;-86
2023/09/14 10:04:10;;;;;;;5.05;4.60;;;;;;;24.45;100.00;99637.25;4958955;28;20684;-87
2023/09/14 10:06:40;;;;;;;5.15;4.75;;;;;;;24.40;100.00;99640.88;4944517;28;20207;-86
2023/09/14 10:09:10;;;;;;;4.90;4.60;;;;;;;24.46;100.00;99638.84;4944763;28;20230;-86
2023/09/14 10:11:38;;;;;;;5.10;4.80;;;;;;;24.41;100.00;99636.22;4963928;28;20661;-86
2023/09/14 10:14:13;;;;;;;5.22;4.82;;;;;;;24.42;100.00;99635.91;4960994;28;20216;-86
2023/09/14 10:16:42;;;;;;;5.10;4.70;;;;;;;24.11;100.00;99645.94;4963877;28;20664;-86
2023/09/14 10:19:11;;;;;;;5.60;5.20;;;;;;;23.91;100.00;99638.19;4983606;28;20577;-86
2023/09/14 10:21:45;;;;;;;5.60;5.20;;;;;;;23.47;100.00;99644.31;4963570;28;20205;-86
2023/09/14 10:24:20;;;;;;;4.70;4.40;;;;;;;23.85;100.00;99644.88;4965131;28;20203;-86
2023/09/14 10:26:49;;;;;;;5.18;4.78;;;;;;;23.79;100.00;99648.84;4949146;28;20200;-87
2023/09/14 10:29:18;;;;;;;5.22;4.82;;;;;;;24.11;100.00;99648.69;4963822;28;20831;-87
2023/09/14 10:31:46;;;;;;;5.60;5.20;;;;;;;24.08;100.00;99644.63;4960513;28;20199;-88
2023/09/14 10:34:15;;;;;;;5.47;5.07;;;;;;;24.07;100.00;99648.50;4949907;28;20223;-87
2023/09/14 10:36:46;;;;;;;5.47;5.07;;;;;;;23.79;100.00;99646.91;4961094;28;20203;-87
2023/09/14 10:39:17;;;;;;;5.85;5.45;;;;;;;23.72;100.00;99646.50;4978965;28;20225;-88
2023/09/14 10:41:46;;;;;;;5.88;5.47;;;;;;;23.59;100.00;99637.22;4979627;28;20238;-86
2023/09/14 10:44:14;;;;;;;5.95;5.45;;;;;;;23.69;100.00;99639.75;4988402;28;20715;-86
2023/09/14 10:46:44;;;;;;;5.85;5.43;;;;;;;23.75;100.00;99642.38;4995066;28;20223;-87
2023/09/14 10:49:16;;;;;;;5.60;5.20;;;;;;;23.60;100.00;99636.09;4992081;28;20608;-85
2023/09/14 10:51:47;;;;;;;6.07;5.60;;;;;;;23.21;100.00;99642.03;4985015;28;20197;-86
2023/09/14 10:54:24;;;;;;;5.90;5.50;;;;;;;23.31;100.00;99643.75;4983658;28;20199;-85
2023/09/14 10:56:56;;;;;;;5.85;5.45;;;;;;;23.44;100.00;99647.59;4971908;28;20215;-86
2023/09/14 10:59:52;;;;;;;5.72;5.38;;;;;;;23.59;100.00;99645.41;4979746;28;20229;-85
2023/09/14 11:02:48;;;;;;;5.93;5.60;;;;;;;23.74;100.00;99644.28;4964984;28;20233;-87
2023/09/14 11:05:25;;;;;;;5.40;5.00;;;;;;;23.79;100.00;99643.38;4977189;28;20581;-86
2023/09/14 11:08:02;;;;;;;5.82;5.43;;;;;;;23.85;100.00;99640.19;4979193;28;20204;-85
2023/09/14 11:10:34;;;;;;;5.60;5.20;;;;;;;24.02;100.00;99640.38;4974831;28;20217;-86
2023/09/14 11:13:18;;;;;;;5.03;4.63;;;;;;;23.97;100.00;99637.78;4982686;28;20220;-87
2023/09/14 11:15:56;;;;;;;5.93;5.47;;;;;;;23.94;100.00;99643.03;5002304;28;20254;-86
2023/09/14 11:18:52;;;;;;;5.88;5.53;;;;;;;24.02;100.00;99634.91;4979609;28;20671;-86
2023/09/14 11:21:36;;;;;;;5.18;4.80;;;;;;;24.04;100.00;99632.66;4980803;28;20643;-85
2023/09/14 11:24:07;;;;;;;5.78;5.25;;;;;;;24.13;100.00;99632.75;4982027;28;20211;-85
2023/09/14 11:26:42;;;;;;;5.15;4.75;;;;;;;23.98;100.00;99625.69;4976923;28;20203;-87
2023/09/14 11:29:20;;;;;;;5.18;4.70;;;;;;;23.86;100.00;99621.88;4979768;28;20707;-86
2023/09/14 11:31:59;;;;;;;5.45;4.95;;;;;;;24.14;100.00;99617.94;4982566;28;20207;-87
2023/09/14 11:34:44;;;;;;;5.55;5.05;;;;;;;24.45;100.00;99621.59;4985724;28;20287;-86
2023/09/14 11:37:16;;;;;;;4.50;4.20;;;;;;;24.72;100.00;99617.94;4968274;28;20200;-85
2023/09/14 11:39:52;;;;;;;4.65;4.35;;;;;;;24.89;100.00;99614.50;4980461;28;20234;-86
2023/09/14 11:42:25;;;;;;;4.55;4.25;;;;;;;25.39;100.00;99610.38;4971249;28;20255;-85
2023/09/14 11:44:59;;;;;;;4.57;4.28;;;;;;;25.51;100.00;99615.25;4985039;28;20714;-87